Time;durP1;ratioP1;P1;durP2;ratioP2;P2;SDS_P1;SDS_P2;PMS_P1;PMS_P2;Temp;Humidity;BMP_temperature;BMP_pressure;BME280_temperature;BME280_humidity;BME280_pressure;Samples;Min_cycle;Max_cycle;Signal;HPM_P1;HPM_P2
2023/09/14 00:01:42;;;;;;;9.43;5.17;;;15.30;97.70;;;;;;5092326;28;20254;-70
2023/09/14 00:04:07;;;;;;;9.87;5.40;;;15.30;99.90;;;;;;5092765;28;20624;-70
2023/09/14 00:06:33;;;;;;;20.57;9.03;;;15.30;99.90;;;;;;5093307;28;20251;-70
2023/09/14 00:08:59;;;;;;;11.40;6.40;;;15.20;99.90;;;;;;5093285;28;20237;-70
2023/09/14 00:11:24;;;;;;;11.30;6.27;;;15.20;99.90;;;;;;5093331;28;20195;-70
2023/09/14 00:13:50;;;;;;;12.97;5.03;;;15.20;99.90;;;;;;5093366;28;20724;-68
2023/09/14 00:16:16;;;;;;;7.17;5.03;;;15.10;99.90;;;;;;5093111;28;20759;-69
2023/09/14 00:18:41;;;;;;;6.53;5.50;;;15.10;99.90;;;;;;5094109;28;20215;-69
2023/09/14 00:21:07;;;;;;;10.83;5.63;;;15.10;99.90;;;;;;5097538;28;20255;-69
2023/09/14 00:23:32;;;;;;;8.73;5.77;;;15.10;99.90;;;;;;5097424;28;20557;-70
2023/09/14 00:25:58;;;;;;;7.53;4.87;;;15.00;99.90;;;;;;5095779;28;20267;-70
2023/09/14 00:28:24;;;;;;;8.43;4.80;;;15.00;99.90;;;;;;5097301;28;20206;-70
2023/09/14 00:30:52;;;;;;;5.63;4.60;;;15.00;99.90;;;;;;5097333;28;20559;-70
2023/09/14 00:33:17;;;;;;;8.93;4.60;;;15.00;99.90;;;;;;5096731;28;20348;-70
2023/09/14 00:35:46;;;;;;;8.23;4.83;;;15.00;99.90;;;;;;5096969;28;20214;-70
2023/09/14 00:38:12;;;;;;;8.73;4.83;;;15.00;99.90;;;;;;5097033;28;20200;-70
2023/09/14 00:40:38;;;;;;;10.03;5.07;;;14.90;99.90;;;;;;5097046;28;20248;-69
2023/09/14 00:43:04;;;;;;;7.10;4.47;;;14.90;99.90;;;;;;5096913;28;20161;-70
2023/09/14 00:45:31;;;;;;;8.27;5.53;;;14.90;99.90;;;;;;5096914;28;20182;-70
2023/09/14 00:47:59;;;;;;;7.00;5.43;;;14.90;99.90;;;;;;5096267;28;20172;-70
2023/09/14 00:50:29;;;;;;;10.53;5.00;;;14.90;99.90;;;;;;5096890;28;20293;-69
2023/09/14 00:53:02;;;;;;;10.53;5.53;;;14.90;99.90;;;;;;5096715;28;20211;-70
2023/09/14 00:55:29;;;;;;;8.57;4.90;;;14.80;99.90;;;;;;5096788;28;20312;-70
2023/09/14 00:57:58;;;;;;;7.20;5.23;;;14.80;99.90;;;;;;5096642;28;20178;-70
2023/09/14 01:00:24;;;;;;;9.33;5.60;;;14.90;99.90;;;;;;5096692;28;20176;-69
2023/09/14 01:02:52;;;;;;;7.27;5.20;;;14.80;99.90;;;;;;5096294;28;20168;-69
2023/09/14 01:05:18;;;;;;;6.00;5.33;;;14.90;99.90;;;;;;5096545;28;20191;-69
2023/09/14 01:07:44;;;;;;;9.00;5.10;;;14.90;99.90;;;;;;5096416;28;20254;-69
2023/09/14 01:10:10;;;;;;;7.90;5.50;;;14.80;99.90;;;;;;5096490;28;20156;-70
2023/09/14 01:12:36;;;;;;;9.40;5.47;;;14.70;99.90;;;;;;5096191;28;20704;-69
2023/09/14 01:15:08;;;;;;;9.10;5.23;;;14.70;99.90;;;;;;5096263;28;20675;-68
2023/09/14 01:18:00;;;;;;;11.70;5.37;;;14.70;99.90;;;;;;5096024;28;20164;-69
2023/09/14 01:21:03;;;;;;;12.70;5.70;;;14.70;99.90;;;;;;5072491;28;20231;-69
2023/09/14 01:23:46;;;;;;;11.33;5.13;;;14.60;99.90;;;;;;5096274;28;20163;-69
2023/09/14 01:26:12;;;;;;;8.13;5.50;;;14.60;99.90;;;;;;5096365;28;20171;-69
2023/09/14 01:28:38;;;;;;;9.10;5.57;;;14.60;99.90;;;;;;5095931;28;20270;-69
2023/09/14 01:31:03;;;;;;;10.63;5.30;;;14.50;99.90;;;;;;5095585;28;20207;-69
2023/09/14 01:33:29;;;;;;;7.87;5.37;;;14.50;99.90;;;;;;5095852;28;20211;-69
2023/09/14 01:36:27;;;;;;;7.83;5.23;;;14.60;99.90;;;;;;5095849;28;20190;-69
2023/09/14 01:38:54;;;;;;;8.03;5.90;;;14.60;99.90;;;;;;5095940;28;20254;-70
2023/09/14 01:41:21;;;;;;;9.93;5.67;;;14.60;99.90;;;;;;5095958;28;20167;-69
2023/09/14 01:43:51;;;;;;;9.43;5.70;;;14.60;99.90;;;;;;5095788;28;20179;-70
2023/09/14 01:46:17;;;;;;;6.93;5.43;;;14.60;99.90;;;;;;5095718;28;20164;-69
2023/09/14 01:48:44;;;;;;;8.30;5.73;;;14.60;99.90;;;;;;5095703;28;20688;-69
2023/09/14 01:51:10;;;;;;;10.50;5.50;;;14.60;99.90;;;;;;5095541;28;20191;-69
2023/09/14 01:53:35;;;;;;;10.23;6.30;;;14.60;99.90;;;;;;5095585;28;20725;-69
2023/09/14 01:56:01;;;;;;;8.60;6.07;;;14.60;99.90;;;;;;5095531;28;20568;-69
2023/09/14 01:58:26;;;;;;;11.00;6.57;;;14.60;99.90;;;;;;5095396;28;20631;-69
2023/09/14 02:00:52;;;;;;;14.13;6.13;;;14.60;99.90;;;;;;5095236;28;20298;-70
2023/09/14 02:03:18;;;;;;;9.77;6.40;;;14.60;99.90;;;;;;5094120;28;20478;-69
2023/09/14 02:05:43;;;;;;;9.47;6.53;;;14.50;99.90;;;;;;5095419;28;20170;-69
2023/09/14 02:08:09;;;;;;;11.77;6.00;;;14.50;99.90;;;;;;5095238;28;20171;-69
2023/09/14 02:10:35;;;;;;;7.73;6.07;;;14.60;99.90;;;;;;5095251;28;20196;-69
2023/09/14 02:13:00;;;;;;;10.63;6.00;;;14.50;99.90;;;;;;5095140;28;20200;-69
2023/09/14 02:15:26;;;;;;;12.80;6.70;;;14.50;99.90;;;;;;5094676;28;20191;-69
2023/09/14 02:17:52;;;;;;;10.70;6.50;;;14.50;99.90;;;;;;5095143;28;20164;-69
2023/09/14 02:20:17;;;;;;;8.93;6.67;;;14.40;99.90;;;;;;5094717;28;20280;-69
2023/09/14 02:22:43;;;;;;;9.23;6.10;;;14.40;99.90;;;;;;5095377;28;20216;-69
2023/09/14 02:25:08;;;;;;;8.40;6.00;;;14.40;99.90;;;;;;5095242;28;20168;-69
2023/09/14 02:27:35;;;;;;;7.70;5.73;;;14.40;99.90;;;;;;5094723;28;20526;-69
2023/09/14 02:30:00;;;;;;;9.70;6.20;;;14.40;99.90;;;;;;5094422;28;20168;-69
2023/09/14 02:32:26;;;;;;;11.93;6.20;;;14.40;99.90;;;;;;5094715;28;20739;-69
2023/09/14 02:34:52;;;;;;;8.27;6.40;;;14.40;99.90;;;;;;5094930;28;20176;-69
2023/09/14 02:37:17;;;;;;;13.93;6.53;;;14.30;99.90;;;;;;5094634;28;20519;-69
2023/09/14 02:39:43;;;;;;;10.50;6.10;;;14.30;99.90;;;;;;5094727;28;20180;-68
2023/09/14 02:42:08;;;;;;;11.80;6.97;;;14.30;99.90;;;;;;5093878;28;20530;-69
2023/09/14 02:44:36;;;;;;;15.20;6.60;;;14.30;99.90;;;;;;5092850;28;20172;-69
2023/09/14 02:47:02;;;;;;;8.17;6.20;;;14.30;99.90;;;;;;5094549;28;20224;-69
2023/09/14 02:49:28;;;;;;;12.90;6.10;;;14.20;99.90;;;;;;5094483;28;20168;-69
2023/09/14 02:51:53;;;;;;;7.67;5.87;;;14.20;99.90;;;;;;5094533;28;20176;-69
2023/09/14 02:54:19;;;;;;;6.80;6.10;;;14.20;99.90;;;;;;5094412;28;20547;-69
2023/09/14 02:56:45;;;;;;;8.63;6.17;;;14.30;99.90;;;;;;5094173;28;20176;-68
2023/09/14 02:59:10;;;;;;;13.83;6.07;;;14.30;99.90;;;;;;5093858;28;20680;-68
2023/09/14 03:01:36;;;;;;;12.10;6.33;;;14.30;99.90;;;;;;5094242;28;20168;-69
2023/09/14 03:04:02;;;;;;;13.13;6.23;;;14.40;99.90;;;;;;5094395;28;20307;-69
2023/09/14 03:06:29;;;;;;;9.83;6.17;;;14.40;99.90;;;;;;5092799;28;20180;-69
2023/09/14 03:08:55;;;;;;;13.00;6.10;;;14.30;99.90;;;;;;5094058;28;20267;-69
2023/09/14 03:11:20;;;;;;;11.67;6.47;;;14.20;99.90;;;;;;5094135;28;20257;-69
2023/09/14 03:13:46;;;;;;;10.70;5.90;;;14.10;99.90;;;;;;5093500;28;20222;-69
2023/09/14 03:16:12;;;;;;;8.07;5.73;;;14.10;99.90;;;;;;5094107;28;20207;-69
2023/09/14 03:18:37;;;;;;;11.50;5.87;;;14.10;99.90;;;;;;5093519;28;20214;-69
2023/09/14 03:21:03;;;;;;;10.13;6.10;;;14.10;99.90;;;;;;5093565;28;20667;-68
2023/09/14 03:23:29;;;;;;;9.13;5.90;;;14.20;99.90;;;;;;5093969;28;20176;-68
2023/09/14 03:25:56;;;;;;;11.33;6.20;;;14.10;99.90;;;;;;5093828;28;20225;-68
2023/09/14 03:28:21;;;;;;;10.63;5.80;;;14.10;99.90;;;;;;5093573;28;20194;-69
2023/09/14 03:30:47;;;;;;;9.53;6.47;;;14.10;99.90;;;;;;5093455;28;20172;-69
2023/09/14 03:33:13;;;;;;;9.07;5.77;;;14.10;99.90;;;;;;5093415;28;20203;-69
2023/09/14 03:35:41;;;;;;;7.80;5.37;;;14.10;99.90;;;;;;5093629;28;20172;-69
2023/09/14 03:38:06;;;;;;;11.67;5.90;;;14.10;99.90;;;;;;5093410;28;20172;-68
2023/09/14 03:40:32;;;;;;;12.07;7.13;;;14.00;99.90;;;;;;5093665;28;20681;-68
2023/09/14 03:42:57;;;;;;;9.27;5.57;;;14.10;99.90;;;;;;5092880;28;20578;-69
2023/09/14 03:45:23;;;;;;;8.87;6.10;;;14.10;99.90;;;;;;5093412;28;20180;-68
2023/09/14 03:47:50;;;;;;;12.53;5.83;;;14.20;99.90;;;;;;5093200;28;20172;-69
2023/09/14 03:50:16;;;;;;;9.63;5.93;;;14.20;99.90;;;;;;5093470;28;20245;-68
2023/09/14 03:52:42;;;;;;;8.93;5.77;;;14.30;99.90;;;;;;5092254;28;20261;-68
2023/09/14 03:55:08;;;;;;;11.17;6.10;;;14.30;99.90;;;;;;5092510;28;20191;-69
2023/09/14 03:57:34;;;;;;;10.53;6.43;;;14.30;99.90;;;;;;5091163;28;20183;-70
2023/09/14 04:00:00;;;;;;;12.83;6.33;;;14.30;99.90;;;;;;5092965;28;20469;-70
2023/09/14 04:02:25;;;;;;;9.73;6.30;;;14.40;99.90;;;;;;5092779;28;20981;-68
2023/09/14 04:04:51;;;;;;;9.37;6.87;;;14.60;99.90;;;;;;5092872;28;20176;-68
2023/09/14 04:07:17;;;;;;;9.30;6.70;;;14.70;99.90;;;;;;5093029;28;20176;-68
2023/09/14 04:09:43;;;;;;;11.40;7.70;;;14.70;99.90;;;;;;5092935;28;20193;-68
2023/09/14 04:12:09;;;;;;;12.40;6.53;;;14.70;99.90;;;;;;5092535;28;20201;-68
2023/09/14 04:14:35;;;;;;;8.20;6.50;;;14.60;99.90;;;;;;5092981;28;20562;-68
2023/09/14 04:17:01;;;;;;;10.23;6.37;;;14.60;99.90;;;;;;5092464;28;20250;-69
2023/09/14 04:19:29;;;;;;;12.50;6.77;;;14.50;99.90;;;;;;5092406;28;20231;-69
2023/09/14 04:21:55;;;;;;;12.40;6.93;;;14.40;99.90;;;;;;5092610;28;20182;-69
2023/09/14 04:24:20;;;;;;;14.60;7.33;;;14.40;99.90;;;;;;5092315;28;20183;-69
2023/09/14 04:26:46;;;;;;;9.60;6.87;;;14.40;99.90;;;;;;5092372;28;20196;-70
2023/09/14 04:29:13;;;;;;;18.03;9.73;;;14.40;99.90;;;;;;5092980;28;20669;-70
2023/09/14 04:31:40;;;;;;;12.90;8.07;;;14.40;99.90;;;;;;5092675;28;20167;-70
2023/09/14 04:34:06;;;;;;;13.70;7.63;;;14.40;99.90;;;;;;5092298;28;20264;-69
2023/09/14 04:36:32;;;;;;;19.30;8.07;;;14.30;99.90;;;;;;5092287;28;20172;-68
2023/09/14 04:39:00;;;;;;;13.63;7.87;;;14.40;99.90;;;;;;5092313;28;20254;-69
2023/09/14 04:41:25;;;;;;;18.43;7.63;;;14.30;99.90;;;;;;5092326;28;20227;-69
2023/09/14 04:43:51;;;;;;;13.97;7.70;;;14.20;99.90;;;;;;5092348;28;20658;-69
2023/09/14 04:46:17;;;;;;;15.93;7.67;;;14.10;99.90;;;;;;5092282;28;20216;-69
2023/09/14 04:48:42;;;;;;;17.23;7.20;;;14.10;99.90;;;;;;5092373;28;20201;-69
2023/09/14 04:51:08;;;;;;;15.67;7.27;;;14.10;99.90;;;;;;5092240;28;20608;-69
2023/09/14 04:53:34;;;;;;;13.47;7.03;;;14.10;99.90;;;;;;5091194;28;20212;-70
2023/09/14 04:55:59;;;;;;;15.93;7.40;;;14.00;99.90;;;;;;5092164;28;20168;-69
2023/09/14 04:58:25;;;;;;;26.50;7.63;;;14.00;99.90;;;;;;5091823;28;20176;-69
2023/09/14 05:00:51;;;;;;;17.40;7.80;;;13.90;99.90;;;;;;5092031;28;20288;-69
2023/09/14 05:03:17;;;;;;;29.63;8.40;;;13.90;99.90;;;;;;5092104;28;20176;-68
2023/09/14 05:05:48;;;;;;;28.53;7.77;;;13.90;99.90;;;;;;5095008;28;20183;-69
2023/09/14 05:08:14;;;;;;;24.53;8.00;;;13.80;99.90;;;;;;5093359;28;20180;-68
2023/09/14 05:10:39;;;;;;;23.97;8.10;;;13.90;99.90;;;;;;5095453;28;20524;-70
2023/09/14 05:13:05;;;;;;;22.07;7.93;;;13.80;99.90;;;;;;5095182;28;20671;-69
2023/09/14 05:15:30;;;;;;;15.47;7.37;;;13.80;99.90;;;;;;5095608;28;20171;-69
2023/09/14 05:17:56;;;;;;;26.10;8.30;;;13.90;99.90;;;;;;5095506;28;20618;-69
2023/09/14 05:20:22;;;;;;;19.00;8.30;;;13.90;99.90;;;;;;5095266;28;20230;-69
2023/09/14 05:22:47;;;;;;;22.53;8.37;;;13.90;99.90;;;;;;5094717;28;20620;-69
2023/09/14 05:25:14;;;;;;;26.23;8.47;;;13.90;99.90;;;;;;5095083;28;20172;-69
2023/09/14 05:27:41;;;;;;;28.70;8.77;;;14.00;99.90;;;;;;5094724;28;20254;-69
2023/09/14 05:30:11;;;;;;;18.17;8.07;;;14.00;99.90;;;;;;5095641;28;20184;-69
2023/09/14 05:32:39;;;;;;;21.67;8.30;;;14.10;99.90;;;;;;5093265;28;20209;-69
2023/09/14 05:35:06;;;;;;;24.67;8.77;;;14.20;99.90;;;;;;5093218;28;20271;-69
2023/09/14 05:37:33;;;;;;;23.67;8.20;;;14.40;99.90;;;;;;5094573;28;20225;-69
2023/09/14 05:39:58;;;;;;;28.57;9.00;;;14.90;99.90;;;;;;5095073;28;20168;-70
2023/09/14 05:42:24;;;;;;;25.90;8.33;;;15.30;99.90;;;;;;5094453;28;20179;-68
2023/09/14 05:44:50;;;;;;;22.07;8.00;;;15.60;99.90;;;;;;5094180;28;20176;-71
2023/09/14 05:47:15;;;;;;;21.07;7.80;;;16.10;99.90;;;;;;5094575;28;20182;-70
2023/09/14 05:49:42;;;;;;;17.00;6.97;;;16.60;99.90;;;;;;5094831;28;20171;-69
2023/09/14 05:52:08;;;;;;;16.67;7.03;;;16.90;99.90;;;;;;5093377;28;20266;-70
2023/09/14 05:54:34;;;;;;;17.95;6.30;;;17.60;99.90;;;;;;5093825;28;20183;-69
2023/09/14 05:56:59;;;;;;;16.48;6.90;;;18.10;84.00;;;;;;5094454;28;20168;-70
2023/09/14 05:59:25;;;;;;;14.25;6.68;;;18.70;60.00;;;;;;5092253;28;20179;-70
2023/09/14 06:01:51;;;;;;;15.90;6.70;;;19.40;39.40;;;;;;5092507;28;20201;-70
2023/09/14 06:04:17;;;;;;;13.30;6.43;;;20.30;22.60;;;;;;5094379;28;20194;-71
2023/09/14 06:06:43;;;;;;;12.35;6.13;;;20.90;1.00;;;;;;5093391;28;20675;-70
2023/09/14 06:09:09;;;;;;;10.18;6.38;;;21.60;1.00;;;;;;5093643;28;20263;-71
2023/09/14 06:11:34;;;;;;;14.85;7.07;;;22.10;1.00;;;;;;5094215;28;20208;-71
2023/09/14 06:14:00;;;;;;;14.75;6.97;;;22.80;1.00;;;;;;5093913;28;20230;-71
2023/09/14 06:16:26;;;;;;;15.48;7.82;;;22.70;1.00;;;;;;5092954;28;20236;-71
2023/09/14 06:18:52;;;;;;;16.55;8.00;;;21.90;1.00;;;;;;5094198;28;20575;-72
2023/09/14 06:21:18;;;;;;;16.38;7.72;;;21.10;1.00;;;;;;5092846;28;20176;-72
2023/09/14 06:23:44;;;;;;;22.25;7.85;;;20.50;1.00;;;;;;5093603;28;20171;-70
2023/09/14 06:26:10;;;;;;;15.80;7.13;;;20.50;1.00;;;;;;5094247;28;20309;-71
2023/09/14 06:28:35;;;;;;;18.92;8.07;;;20.70;1.00;;;;;;5093614;28;20639;-70
2023/09/14 06:31:01;;;;;;;17.45;7.55;;;20.40;1.00;;;;;;5093696;28;20543;-71
2023/09/14 06:33:27;;;;;;;19.48;8.00;;;20.30;1.00;;;;;;5093893;28;20206;-71
2023/09/14 06:35:52;;;;;;;18.30;7.93;;;20.70;1.00;;;;;;5074812;28;20188;-71
2023/09/14 06:38:18;;;;;;;15.00;7.75;;;21.20;1.00;;;;;;5093471;28;20521;-72
2023/09/14 06:40:44;;;;;;;16.27;7.72;;;21.80;1.00;;;;;;5093046;28;20702;-72
2023/09/14 06:43:10;;;;;;;16.27;7.32;;;22.30;1.00;;;;;;5093846;28;20199;-72
2023/09/14 06:45:35;;;;;;;18.95;7.53;;;23.20;1.00;;;;;;5092827;28;20572;-72
2023/09/14 06:48:01;;;;;;;18.83;8.45;;;24.60;1.00;;;;;;5093949;28;20171;-71
2023/09/14 06:50:27;;;;;;;27.23;8.43;;;25.20;1.00;;;;;;5092837;28;20191;-72
2023/09/14 06:52:52;;;;;;;13.93;7.40;;;24.60;1.00;;;;;;5093367;28;20283;-72
2023/09/14 06:55:19;;;;;;;20.42;9.05;;;25.00;1.00;;;;;;5093317;28;20271;-72
2023/09/14 06:57:45;;;;;;;16.52;8.27;;;25.40;1.00;;;;;;5092953;28;20228;-72
2023/09/14 07:00:14;;;;;;;17.98;8.07;;;26.50;1.00;;;;;;5093388;28;20172;-72
2023/09/14 07:02:41;;;;;;;21.10;8.00;;;27.40;1.00;;;;;;5093304;28;20167;-71
2023/09/14 07:05:10;;;;;;;16.35;8.15;;;27.50;99.90;;;;;;5091530;28;20176;-71
2023/09/14 07:07:38;;;;;;;18.98;8.07;;;27.90;1.00;;;;;;5093691;28;20252;-70
2023/09/14 07:10:05;;;;;;;15.00;7.78;;;28.30;99.90;;;;;;5093021;28;20232;-71
2023/09/14 07:12:31;;;;;;;17.15;9.25;;;28.10;99.90;;;;;;5093384;28;20192;-72
2023/09/14 07:14:57;;;;;;;17.58;7.85;;;27.40;1.00;;;;;;5093211;28;20179;-71
2023/09/14 07:17:22;;;;;;;14.68;8.35;;;28.10;99.90;;;;;;5092615;28;20175;-71
2023/09/14 07:19:49;;;;;;;16.98;8.27;;;29.60;1.00;;;;;;5092091;28;20705;-71
2023/09/14 07:22:14;;;;;;;12.75;8.18;;;30.20;99.90;;;;;;5092434;28;20278;-71
2023/09/14 07:24:41;;;;;;;13.73;8.35;;;30.90;7.10;;;;;;5086413;28;20319;-72
2023/09/14 07:27:06;;;;;;;14.30;7.90;;;30.00;99.90;;;;;;5086908;28;20197;-73
2023/09/14 07:29:33;;;;;;;10.75;7.38;;;29.30;1.00;;;;;;5093614;28;20653;-72
2023/09/14 07:31:59;;;;;;;12.52;7.90;;;30.20;99.90;;;;;;5099148;28;20172;-72
2023/09/14 07:34:24;;;;;;;9.55;7.38;;;30.00;99.90;;;;;;5092147;28;20640;-72
2023/09/14 07:36:50;;;;;;;10.18;7.28;;;29.40;1.00;;;;;;5109468;28;20172;-72
2023/09/14 07:39:16;;;;;;;8.20;6.75;;;28.50;1.00;;;;;;5099077;28;20171;-73
2023/09/14 07:41:42;;;;;;;7.78;6.97;;;27.70;99.90;;;;;;5095304;28;20242;-72
2023/09/14 07:44:08;;;;;;;9.55;6.63;;;28.40;99.90;;;;;;5092567;28;20172;-72
2023/09/14 07:46:33;;;;;;;7.57;6.78;;;28.70;72.00;;;;;;5108788;28;20204;-72
2023/09/14 07:49:00;;;;;;;12.18;6.88;;;29.50;1.00;;;;;;5096415;28;20173;-72
2023/09/14 07:51:25;;;;;;;7.53;5.78;;;30.30;99.90;;;;;;5104013;28;20164;-73
2023/09/14 07:53:53;;;;;;;8.48;6.10;;;30.10;1.00;;;;;;5104252;28;20232;-74
2023/09/14 07:56:19;;;;;;;6.43;5.93;;;30.30;1.00;;;;;;5096157;28;20164;-76
2023/09/14 07:58:44;;;;;;;7.55;6.47;;;30.50;1.00;;;;;;5109173;28;20649;-75
2023/09/14 08:01:10;;;;;;;6.40;5.78;;;29.70;1.00;;;;;;5098475;28;20198;-76
2023/09/14 08:03:36;;;;;;;7.00;5.70;;;27.90;99.90;;;;;;5101766;28;20222;-74
2023/09/14 08:06:02;;;;;;;7.80;6.32;;;26.70;1.00;;;;;;5105587;28;20658;-74
2023/09/14 08:08:27;;;;;;;7.82;6.63;;;27.20;1.00;;;;;;5095040;28;20607;-73
2023/09/14 08:10:53;;;;;;;8.18;5.63;;;27.80;1.00;;;;;;5108067;28;20184;-74
2023/09/14 08:13:19;;;;;;;6.00;5.28;;;28.60;99.90;;;;;;5099543;28;20203;-75
2023/09/14 08:15:45;;;;;;;6.43;5.82;;;29.20;99.90;;;;;;5100848;28;20718;-73
2023/09/14 08:18:11;;;;;;;7.03;5.50;;;28.60;1.00;;;;;;5106629;28;20258;-75
2023/09/14 08:20:44;;;;;;;7.88;5.43;;;29.50;99.90;;;;;;5094055;28;20328;-74
2023/09/14 08:23:12;;;;;;;6.65;5.32;;;30.50;11.70;;;;;;5106177;28;20178;-74
2023/09/14 08:25:43;;;;;;;7.35;5.10;;;31.60;1.00;;;;;;5102339;28;20174;-73
2023/09/14 08:28:10;;;;;;;5.07;4.57;;;31.30;99.90;;;;;;5097605;28;20203;-74
2023/09/14 08:30:37;;;;;;;5.50;5.00;;;31.50;1.00;;;;;;5108753;28;20171;-75
2023/09/14 08:33:03;;;;;;;5.45;5.00;;;32.10;1.00;;;;;;5096773;28;20346;-75
2023/09/14 08:35:31;;;;;;;6.95;5.07;;;33.20;99.90;;;;;;5103274;28;20168;-75
2023/09/14 08:37:57;;;;;;;6.05;4.93;;;33.10;99.90;;;;;;5105024;28;20202;-74
2023/09/14 08:40:24;;;;;;;5.75;5.07;;;32.10;99.90;;;;;;5098751;28;20255;-75
2023/09/14 08:42:52;;;;;;;7.68;5.18;;;32.30;99.90;;;;;;5112367;28;20569;-76
2023/09/14 08:45:26;;;;;;;5.03;4.63;;;31.40;1.00;;;;;;5103577;28;20167;-73
2023/09/14 08:47:52;;;;;;;5.38;4.10;;;30.10;1.00;;;;;;5103750;28;20576;-73
2023/09/14 08:50:20;;;;;;;6.97;4.70;;;29.60;1.00;;;;;;5111414;28;20178;-72
2023/09/14 08:52:46;;;;;;;5.38;4.95;;;29.50;1.00;;;;;;5098782;28;20203;-75
2023/09/14 08:55:12;;;;;;;4.47;4.07;;;29.80;1.00;;;;;;5109168;28;20176;-76
2023/09/14 08:57:44;;;;;;;7.45;5.22;;;30.30;1.00;;;;;;5105305;28;20175;-74
2023/09/14 09:00:17;;;;;;;5.60;4.65;;;29.40;1.00;;;;;;5100537;28;20283;-74
2023/09/14 09:02:52;;;;;;;4.78;4.35;;;29.90;1.00;;;;;;5112565;28;20201;-73
2023/09/14 09:05:20;;;;;;;5.43;4.53;;;30.80;1.00;;;;;;5096981;28;20194;-74
2023/09/14 09:07:48;;;;;;;6.75;4.50;;;30.90;1.00;;;;;;5114370;28;20175;-75
2023/09/14 09:10:13;;;;;;;3.65;3.35;;;30.90;1.00;;;;;;5100329;28;20186;-74
2023/09/14 09:12:39;;;;;;;3.90;3.50;;;29.70;1.00;;;;;;5094776;28;20203;-74
2023/09/14 09:15:07;;;;;;;4.68;4.05;;;29.70;1.00;;;;;;5100311;28;20163;-74
2023/09/14 09:17:39;;;;;;;4.75;3.90;;;30.90;1.00;;;;;;5105721;28;20233;-73
2023/09/14 09:20:19;;;;;;;4.95;3.60;;;32.40;99.90;;;;;;5094698;28;20220;-74
2023/09/14 09:22:45;;;;;;;4.95;3.95;;;32.50;99.90;;;;;;5112273;28;20198;-74
2023/09/14 09:25:13;;;;;;;7.72;3.47;;;30.00;1.00;;;;;;5094552;28;20188;-74
2023/09/14 09:27:39;;;;;;;3.67;3.35;;;29.30;1.00;;;;;;5105158;28;20195;-74
2023/09/14 09:30:06;;;;;;;3.67;3.38;;;29.20;1.00;;;;;;5100750;28;20176;-73
2023/09/14 09:32:32;;;;;;;3.53;3.20;;;29.20;1.00;;;;;;5095474;28;20176;-75
2023/09/14 09:35:16;;;;;;;3.70;3.40;;;29.90;1.00;;;;;;5086916;28;20191;-76
2023/09/14 09:37:42;;;;;;;4.22;2.97;;;30.70;1.00;;;;;;5098473;28;20642;-72
2023/09/14 09:40:28;;;;;;;3.75;2.88;;;29.60;1.00;;;;;;5092390;28;20183;-73
2023/09/14 09:42:54;;;;;;;3.33;2.97;;;28.10;99.90;;;;;;5090469;28;20172;-72
2023/09/14 09:45:21;;;;;;;3.28;2.97;;;27.20;1.00;;;;;;5104150;28;20183;-73
2023/09/14 09:47:48;;;;;;;2.70;2.50;;;27.60;99.90;;;;;;5105559;28;20173;-73
2023/09/14 09:50:15;;;;;;;2.70;2.50;;;27.40;1.00;;;;;;5094408;28;20632;-72
2023/09/14 09:52:43;;;;;;;2.97;2.78;;;27.40;99.90;;;;;;5098841;28;20213;-73
2023/09/14 09:55:16;;;;;;;3.53;3.22;;;26.90;1.00;;;;;;5100086;28;20206;-72
2023/09/14 09:57:49;;;;;;;3.10;2.80;;;27.60;99.90;;;;;;5103399;28;20209;-70
2023/09/14 10:00:16;;;;;;;3.22;2.38;;;27.70;1.00;;;;;;5109435;28;20175;-70
2023/09/14 10:02:42;;;;;;;2.72;2.50;;;27.50;99.90;;;;;;5097094;28;20164;-67
2023/09/14 10:05:08;;;;;;;6.55;2.70;;;27.60;99.90;;;;;;5108004;28;20183;-71
2023/09/14 10:07:39;;;;;;;3.88;2.95;;;27.20;1.00;;;;;;5103695;28;20220;-69
2023/09/14 10:10:09;;;;;;;3.03;2.78;;;27.40;99.90;;;;;;5100845;28;20225;-70
2023/09/14 10:12:39;;;;;;;5.32;3.50;;;26.50;1.00;;;;;;5110175;28;20199;-71
2023/09/14 10:15:09;;;;;;;2.78;2.58;;;25.20;99.90;;;;;;5096866;28;20183;-71
2023/09/14 10:17:35;;;;;;;3.05;2.80;;;24.70;1.00;;;;;;5092952;28;20788;-72
2023/09/14 10:20:08;;;;;;;2.97;2.70;;;24.40;99.90;;;;;;5105873;28;20763;-71
2023/09/14 10:22:37;;;;;;;2.70;2.50;;;24.10;99.90;;;;;;5112625;28;20670;-71
2023/09/14 10:25:04;;;;;;;3.95;2.88;;;23.90;1.00;;;;;;5098842;28;20186;-70
2023/09/14 10:27:30;;;;;;;3.05;2.78;;;23.90;99.90;;;;;;5103805;28;20195;-72
2023/09/14 10:29:59;;;;;;;5.22;3.10;;;24.10;99.90;;;;;;5105921;28;20175;-69
2023/09/14 10:32:26;;;;;;;3.15;2.85;;;23.80;99.90;;;;;;5096738;28;20647;-69
2023/09/14 10:34:55;;;;;;;6.22;2.78;;;23.70;99.90;;;;;;5092632;28;20184;-69
2023/09/14 10:37:23;;;;;;;5.15;4.50;;;23.80;99.90;;;;;;5100610;28;20171;-69
2023/09/14 10:39:51;;;;;;;3.80;2.75;;;23.70;99.90;;;;;;5113611;28;20243;-71
2023/09/14 10:42:17;;;;;;;3.95;3.22;;;23.10;1.00;;;;;;5095940;28;20221;-71
2023/09/14 10:44:44;;;;;;;2.70;2.45;;;23.00;1.00;;;;;;5111717;28;20213;-71
2023/09/14 10:47:12;;;;;;;2.80;2.30;;;23.40;99.90;;;;;;5092836;28;20172;-73
2023/09/14 10:49:41;;;;;;;4.05;2.88;;;23.40;99.90;;;;;;5113033;28;20175;-70
2023/09/14 10:52:07;;;;;;;2.90;2.60;;;23.10;1.00;;;;;;5098907;28;20172;-70
2023/09/14 10:54:33;;;;;;;3.70;3.08;;;22.80;1.00;;;;;;5102919;28;20217;-70
2023/09/14 10:57:01;;;;;;;3.13;2.97;;;22.70;1.00;;;;;;5108005;28;20259;-69
2023/09/14 10:59:54;;;;;;;3.03;2.83;;;22.30;1.00;;;;;;5096311;28;20168;-73
2023/09/14 11:02:39;;;;;;;4.35;3.20;;;22.20;1.00;;;;;;5089587;28;20187;-73
2023/09/14 11:05:15;;;;;;;2.83;2.63;;;22.20;1.00;;;;;;5083329;28;20269;-71
2023/09/14 11:07:52;;;;;;;3.42;3.05;;;22.40;1.00;;;;;;5098044;28;20183;-71
2023/09/14 11:10:18;;;;;;;3.15;2.78;;;22.30;1.00;;;;;;5108178;28;20159;-71
2023/09/14 11:12:44;;;;;;;3.72;3.38;;;22.00;1.00;;;;;;5095660;28;20204;-71
2023/09/14 11:15:22;;;;;;;3.97;3.60;;;22.00;1.00;;;;;;5112789;28;20180;-71
2023/09/14 11:17:52;;;;;;;4.75;2.67;;;22.10;1.00;;;;;;5100200;28;20768;-69
2023/09/14 11:20:20;;;;;;;4.25;3.20;;;22.00;1.00;;;;;;5093615;28;20216;-71
2023/09/14 11:22:50;;;;;;;2.65;2.45;;;22.20;1.00;;;;;;5089935;28;20180;-70
2023/09/14 11:25:36;;;;;;;3.13;2.83;;;22.50;1.00;;;;;;5098871;28;20171;-70
2023/09/14 11:28:05;;;;;;;2.85;2.60;;;23.00;1.00;;;;;;5097662;28;20552;-69
2023/09/14 11:30:31;;;;;;;2.78;2.47;;;23.60;99.90;;;;;;5107776;28;20534;-72
2023/09/14 11:33:00;;;;;;;3.58;2.60;;;24.10;1.00;;;;;;5091248;28;20199;-75
2023/09/14 11:35:38;;;;;;;6.00;3.63;;;24.50;1.00;;;;;;5092871;28;20164;-73
2023/09/14 11:38:12;;;;;;;2.72;2.47;;;24.80;99.90;;;;;;5108034;28;20726;-72
2023/09/14 11:40:38;;;;;;;4.32;3.70;;;24.60;1.00;;;;;;5105206;28;20171;-73
2023/09/14 11:43:07;;;;;;;2.85;2.33;;;23.70;1.00;;;;;;5092002;28;20375;-72
2023/09/14 11:45:38;;;;;;;2.60;2.40;;;23.80;38.70;;;;;;5092492;28;20242;-72
2023/09/14 11:48:14;;;;;;;4.25;2.63;;;24.30;1.00;;;;;;5092455;28;20172;-71
2023/09/14 11:50:46;;;;;;;2.97;2.78;;;24.30;99.90;;;;;;5091213;28;20171;-72
2023/09/14 11:53:17;;;;;;;3.70;2.50;;;24.60;99.90;;;;;;5096088;28;21294;-70
2023/09/14 11:55:47;;;;;;;2.80;2.60;;;24.70;1.00;;;;;;5095607;28;20167;-71
2023/09/14 11:58:13;;;;;;;2.50;2.30;;;24.70;99.90;;;;;;5091994;28;20176;-71
2023/09/14 12:00:45;;;;;;;2.63;2.20;;;24.90;99.90;;;;;;5094319;28;20183;-74
2023/09/14 12:03:11;;;;;;;4.07;2.55;;;24.40;1.00;;;;;;5108629;28;20200;-72
2023/09/14 12:05:37;;;;;;;3.38;2.35;;;24.40;1.00;;;;;;5090639;28;20167;-74
2023/09/14 12:08:16;;;;;;;3.28;1.77;;;24.80;99.90;;;;;;5100004;28;20168;-73
2023/09/14 12:10:44;;;;;;;2.42;2.22;;;24.30;70.70;;;;;;5095839;28;20168;-73
2023/09/14 12:13:14;;;;;;;3.80;2.25;;;24.30;99.90;;;;;;5111051;28;20224;-73
2023/09/14 12:15:45;;;;;;;2.92;2.42;;;24.10;1.00;;;;;;5108117;28;20172;-73
2023/09/14 12:18:12;;;;;;;2.20;2.10;;;23.80;99.90;;;;;;5106622;28;20200;-74
2023/09/14 12:20:43;;;;;;;2.45;2.25;;;23.70;1.00;;;;;;5116495;28;20207;-73
2023/09/14 12:23:11;;;;;;;4.00;3.70;;;23.50;1.00;;;;;;5099074;28;20176;-73
2023/09/14 12:25:38;;;;;;;4.13;3.20;;;23.30;99.90;;;;;;5110270;28;20209;-73
2023/09/14 12:28:07;;;;;;;3.22;2.55;;;23.20;99.90;;;;;;5105681;28;20195;-71
2023/09/14 12:30:34;;;;;;;2.40;2.25;;;23.20;99.90;;;;;;5102306;28;20168;-72
2023/09/14 12:33:02;;;;;;;2.40;2.20;;;23.30;99.90;;;;;;5112560;28;20654;-72
2023/09/14 12:35:29;;;;;;;2.17;2.05;;;23.00;99.90;;;;;;5099925;28;20203;-72
2023/09/14 12:38:00;;;;;;;4.82;3.53;;;22.70;99.90;;;;;;5104415;28;20399;-71
2023/09/14 12:40:26;;;;;;;4.88;2.83;;;22.80;99.90;;;;;;5106831;28;20172;-71
2023/09/14 12:42:52;;;;;;;4.00;2.30;;;22.80;1.00;;;;;;5097546;28;20202;-71
2023/09/14 12:45:18;;;;;;;2.35;2.15;;;23.00;99.90;;;;;;5078191;28;20624;-71
2023/09/14 12:47:48;;;;;;;2.97;2.28;;;23.00;99.90;;;;;;5101611;28;20197;-73